DT180 LPPT-LEMD
Flight info
| Callsign | DT180 |
|---|---|
| Flight time | N/A |
| Altitude | 32000 |
| Route | ORVED DCT OGERO DCT ROLDO DCT RUKER Z409 TLD |
| Aircraft | BCS3/M-SBDE2E3GIRWXY/LB1 |
Departure
| Time | 2026-04-28 19:00 |
|---|---|
| Airport | Lisbon Humberto Delgado Airport (LPPT) |
Arrival
| Time | N/A |
|---|---|
| Airport | Adolfo Suárez Madrid–Barajas Airport (LEMD) |
| Time | Latitude | Longitude | Altitude | Speed | Heading |
|---|---|---|---|---|---|
| 2026-04-28 18:04 | 38.76787 | -9.13898 | 355 ft | 0 kts | 257° |
| 2026-04-28 18:51 | 38.76777 | -9.13888 | 495 ft | 4 kts | 127° |
| 2026-04-28 18:51 | 38.76768 | -9.13858 | 324 ft | 3 kts | 112° |
| 2026-04-28 18:52 | 38.76741 | -9.13814 | 352 ft | 10 kts | 136° |
| 2026-04-28 18:52 | 38.76683 | -9.13825 | 350 ft | 9 kts | 225° |
| 2026-04-28 18:52 | 38.76658 | -9.13913 | 357 ft | 14 kts | 257° |
| 2026-04-28 18:52 | 38.76622 | -9.14056 | 355 ft | 19 kts | 227° |
| 2026-04-28 18:53 | 38.76587 | -9.14215 | 349 ft | 19 kts | 291° |
| 2026-04-28 18:53 | 38.76600 | -9.14254 | 345 ft | 0 kts | 294° |
| 2026-04-28 18:59 | 38.76603 | -9.14261 | 349 ft | 0 kts | 294° |
| 2026-04-28 18:59 | 38.76616 | -9.14301 | 351 ft | 13 kts | 293° |
| 2026-04-28 18:59 | 38.76677 | -9.14363 | 344 ft | 10 kts | 4° |
| 2026-04-28 19:00 | 38.76696 | -9.14356 | 347 ft | 0 kts | 15° |
| 2026-04-28 19:00 | 38.76785 | -9.14321 | 352 ft | 55 kts | 20° |
| 2026-04-28 19:00 | 38.77501 | -9.13943 | 353 ft | 166 kts | 22° |
| 2026-04-28 19:00 | 38.78778 | -9.13115 | 1017 ft | 230 kts | 27° |
| 2026-04-28 19:01 | 38.80277 | -9.12032 | 2382 ft | 260 kts | 27° |
| 2026-04-28 19:01 | 38.81905 | -9.10845 | 3826 ft | 281 kts | 28° |
| 2026-04-28 19:01 | 38.83678 | -9.09546 | 5293 ft | 291 kts | 30° |
| 2026-04-28 19:01 | 38.85399 | -9.08286 | 7408 ft | 280 kts | 31° |
| 2026-04-28 19:02 | 38.87125 | -9.07005 | 8790 ft | 300 kts | 32° |
| 2026-04-28 19:02 | 38.89055 | -9.05534 | 9167 ft | 346 kts | 32° |
| 2026-04-28 19:02 | 38.91254 | -9.03858 | 9469 ft | 388 kts | 30° |
| 2026-04-28 19:02 | 38.93861 | -9.02558 | 9652 ft | 421 kts | 18° |
| 2026-04-28 19:03 | 38.96667 | -9.01732 | 9776 ft | 403 kts | 14° |
| 2026-04-28 19:03 | 38.99224 | -9.00840 | 10210 ft | 356 kts | 22° |
| 2026-04-28 19:03 | 39.01284 | -8.99468 | 11100 ft | 335 kts | 33° |
| 2026-04-28 19:03 | 39.03291 | -8.97580 | 11309 ft | 370 kts | 46° |
| 2026-04-28 19:04 | 39.04703 | -8.94919 | 12727 ft | 355 kts | 68° |
| 2026-04-28 19:04 | 39.05072 | -8.91943 | 15040 ft | 321 kts | 98° |
| 2026-04-28 19:04 | 39.04447 | -8.89374 | 17396 ft | 294 kts | 114° |
| 2026-04-28 19:04 | 39.03530 | -8.86977 | 18449 ft | 305 kts | 121° |
| 2026-04-28 19:05 | 39.02373 | -8.84647 | 19561 ft | 314 kts | 128° |
| 2026-04-28 19:05 | 39.01026 | -8.82333 | 20147 ft | 334 kts | 131° |
| 2026-04-28 19:05 | 38.99462 | -8.79960 | 20494 ft | 361 kts | 134° |
| 2026-04-28 19:05 | 38.98906 | -8.79174 | 20617 ft | 369 kts | 135° |